sensor_id;sensor_type;location;lat;lon;timestamp;P1;durP1;ratioP1;P2;durP2;ratioP2
68940;SDS011;55982;51.476;7.552;2023-04-20T00:01:50;11.18;;;5.40;;
68940;SDS011;55982;51.476;7.552;2023-04-20T00:04:16;9.65;;;4.50;;
68940;SDS011;55982;51.476;7.552;2023-04-20T00:06:42;8.43;;;5.22;;
68940;SDS011;55982;51.476;7.552;2023-04-20T00:09:08;7.07;;;5.00;;
68940;SDS011;55982;51.476;7.552;2023-04-20T00:11:34;10.55;;;5.43;;
68940;SDS011;55982;51.476;7.552;2023-04-20T00:14:00;8.55;;;4.97;;
68940;SDS011;55982;51.476;7.552;2023-04-20T00:16:26;11.20;;;5.30;;
68940;SDS011;55982;51.476;7.552;2023-04-20T00:18:51;9.77;;;5.40;;
68940;SDS011;55982;51.476;7.552;2023-04-20T00:21:16;11.77;;;5.15;;
68940;SDS011;55982;51.476;7.552;2023-04-20T00:23:46;12.52;;;5.70;;
68940;SDS011;55982;51.476;7.552;2023-04-20T00:26:11;11.00;;;4.68;;
68940;SDS011;55982;51.476;7.552;2023-04-20T00:28:37;10.02;;;5.55;;
68940;SDS011;55982;51.476;7.552;2023-04-20T00:31:02;11.35;;;5.47;;
68940;SDS011;55982;51.476;7.552;2023-04-20T00:33:27;9.95;;;5.22;;
68940;SDS011;55982;51.476;7.552;2023-04-20T00:35:53;10.07;;;5.35;;
68940;SDS011;55982;51.476;7.552;2023-04-20T00:38:18;14.20;;;5.50;;
68940;SDS011;55982;51.476;7.552;2023-04-20T00:40:44;13.07;;;5.53;;
68940;SDS011;55982;51.476;7.552;2023-04-20T00:43:13;12.27;;;5.47;;
68940;SDS011;55982;51.476;7.552;2023-04-20T00:45:39;13.43;;;6.10;;
68940;SDS011;55982;51.476;7.552;2023-04-20T00:48:05;9.32;;;5.53;;
68940;SDS011;55982;51.476;7.552;2023-04-20T00:50:31;10.07;;;5.63;;
68940;SDS011;55982;51.476;7.552;2023-04-20T00:52:57;9.43;;;5.72;;
68940;SDS011;55982;51.476;7.552;2023-04-20T00:55:23;9.15;;;6.05;;
68940;SDS011;55982;51.476;7.552;2023-04-20T00:57:50;11.15;;;5.47;;
68940;SDS011;55982;51.476;7.552;2023-04-20T01:00:16;9.15;;;5.45;;
68940;SDS011;55982;51.476;7.552;2023-04-20T01:05:09;18.02;;;5.97;;
68940;SDS011;55982;51.476;7.552;2023-04-20T01:07:35;11.90;;;6.22;;
68940;SDS011;55982;51.476;7.552;2023-04-20T01:10:00;9.82;;;5.82;;
68940;SDS011;55982;51.476;7.552;2023-04-20T01:12:26;9.15;;;5.65;;
68940;SDS011;55982;51.476;7.552;2023-04-20T01:14:51;7.72;;;5.35;;
68940;SDS011;55982;51.476;7.552;2023-04-20T01:17:17;9.45;;;5.72;;
68940;SDS011;55982;51.476;7.552;2023-04-20T01:19:44;10.82;;;5.45;;
68940;SDS011;55982;51.476;7.552;2023-04-20T01:22:16;11.32;;;4.90;;
68940;SDS011;55982;51.476;7.552;2023-04-20T01:24:43;13.45;;;5.10;;
68940;SDS011;55982;51.476;7.552;2023-04-20T01:27:09;9.20;;;5.40;;
68940;SDS011;55982;51.476;7.552;2023-04-20T01:29:35;10.15;;;4.93;;
68940;SDS011;55982;51.476;7.552;2023-04-20T01:32:01;10.35;;;5.28;;
68940;SDS011;55982;51.476;7.552;2023-04-20T01:34:26;8.40;;;5.20;;
68940;SDS011;55982;51.476;7.552;2023-04-20T01:36:52;10.77;;;5.15;;
68940;SDS011;55982;51.476;7.552;2023-04-20T01:39:17;13.48;;;5.05;;
68940;SDS011;55982;51.476;7.552;2023-04-20T01:41:43;11.50;;;5.18;;
68940;SDS011;55982;51.476;7.552;2023-04-20T01:44:08;8.35;;;5.18;;
68940;SDS011;55982;51.476;7.552;2023-04-20T01:46:37;11.13;;;5.10;;
68940;SDS011;55982;51.476;7.552;2023-04-20T01:49:04;10.52;;;4.68;;
68940;SDS011;55982;51.476;7.552;2023-04-20T01:51:30;12.30;;;5.20;;
68940;SDS011;55982;51.476;7.552;2023-04-20T01:53:57;9.77;;;4.50;;
68940;SDS011;55982;51.476;7.552;2023-04-20T01:56:23;11.77;;;5.25;;
68940;SDS011;55982;51.476;7.552;2023-04-20T01:58:49;9.13;;;5.00;;
68940;SDS011;55982;51.476;7.552;2023-04-20T02:01:14;12.77;;;4.88;;
68940;SDS011;55982;51.476;7.552;2023-04-20T02:03:40;12.65;;;5.05;;
68940;SDS011;55982;51.476;7.552;2023-04-20T02:06:05;12.55;;;5.25;;
68940;SDS011;55982;51.476;7.552;2023-04-20T02:08:32;16.02;;;4.60;;
68940;SDS011;55982;51.476;7.552;2023-04-20T02:10:58;13.32;;;5.30;;
68940;SDS011;55982;51.476;7.552;2023-04-20T02:13:23;9.90;;;4.97;;
68940;SDS011;55982;51.476;7.552;2023-04-20T02:15:49;9.57;;;4.88;;
68940;SDS011;55982;51.476;7.552;2023-04-20T02:18:15;12.50;;;4.38;;
68940;SDS011;55982;51.476;7.552;2023-04-20T02:20:43;15.93;;;5.13;;
68940;SDS011;55982;51.476;7.552;2023-04-20T02:23:09;9.98;;;4.28;;
68940;SDS011;55982;51.476;7.552;2023-04-20T02:25:35;8.75;;;4.60;;
68940;SDS011;55982;51.476;7.552;2023-04-20T02:28:00;14.73;;;4.50;;
68940;SDS011;55982;51.476;7.552;2023-04-20T02:30:26;9.82;;;4.32;;
68940;SDS011;55982;51.476;7.552;2023-04-20T02:32:51;8.20;;;4.45;;
68940;SDS011;55982;51.476;7.552;2023-04-20T02:35:17;8.45;;;5.07;;
68940;SDS011;55982;51.476;7.552;2023-04-20T02:37:42;15.00;;;6.57;;
68940;SDS011;55982;51.476;7.552;2023-04-20T02:40:08;8.50;;;4.60;;
68940;SDS011;55982;51.476;7.552;2023-04-20T02:42:34;12.57;;;4.72;;
68940;SDS011;55982;51.476;7.552;2023-04-20T02:45:00;12.50;;;4.70;;
68940;SDS011;55982;51.476;7.552;2023-04-20T02:47:25;11.98;;;4.95;;
68940;SDS011;55982;51.476;7.552;2023-04-20T02:49:50;11.90;;;4.82;;
68940;SDS011;55982;51.476;7.552;2023-04-20T02:52:16;12.45;;;4.78;;
68940;SDS011;55982;51.476;7.552;2023-04-20T02:54:41;10.60;;;4.90;;
68940;SDS011;55982;51.476;7.552;2023-04-20T02:57:07;11.30;;;4.72;;
68940;SDS011;55982;51.476;7.552;2023-04-20T02:59:32;7.63;;;4.97;;
68940;SDS011;55982;51.476;7.552;2023-04-20T03:01:58;8.15;;;5.20;;
68940;SDS011;55982;51.476;7.552;2023-04-20T03:04:23;10.07;;;4.95;;
68940;SDS011;55982;51.476;7.552;2023-04-20T03:06:49;10.63;;;4.55;;
68940;SDS011;55982;51.476;7.552;2023-04-20T03:09:15;9.48;;;5.43;;
68940;SDS011;55982;51.476;7.552;2023-04-20T03:11:41;13.73;;;5.07;;
68940;SDS011;55982;51.476;7.552;2023-04-20T03:14:06;11.45;;;5.03;;
68940;SDS011;55982;51.476;7.552;2023-04-20T03:16:31;12.13;;;4.97;;
68940;SDS011;55982;51.476;7.552;2023-04-20T03:18:57;11.02;;;5.00;;
68940;SDS011;55982;51.476;7.552;2023-04-20T03:21:23;10.63;;;5.53;;
68940;SDS011;55982;51.476;7.552;2023-04-20T03:23:48;10.38;;;5.18;;
68940;SDS011;55982;51.476;7.552;2023-04-20T03:26:14;10.63;;;6.22;;
68940;SDS011;55982;51.476;7.552;2023-04-20T03:28:40;13.18;;;5.65;;
68940;SDS011;55982;51.476;7.552;2023-04-20T03:31:06;12.40;;;6.85;;
68940;SDS011;55982;51.476;7.552;2023-04-20T03:33:31;14.88;;;6.90;;
68940;SDS011;55982;51.476;7.552;2023-04-20T03:35:57;16.92;;;7.13;;
68940;SDS011;55982;51.476;7.552;2023-04-20T03:38:22;14.60;;;6.75;;
68940;SDS011;55982;51.476;7.552;2023-04-20T03:40:47;15.70;;;7.88;;
68940;SDS011;55982;51.476;7.552;2023-04-20T03:43:13;10.07;;;6.93;;
68940;SDS011;55982;51.476;7.552;2023-04-20T03:45:38;13.95;;;7.75;;
68940;SDS011;55982;51.476;7.552;2023-04-20T03:48:04;15.52;;;7.93;;
68940;SDS011;55982;51.476;7.552;2023-04-20T03:50:29;13.13;;;7.00;;
68940;SDS011;55982;51.476;7.552;2023-04-20T03:52:54;19.45;;;7.80;;
68940;SDS011;55982;51.476;7.552;2023-04-20T03:55:20;15.02;;;7.40;;
68940;SDS011;55982;51.476;7.552;2023-04-20T03:57:45;13.82;;;7.70;;
68940;SDS011;55982;51.476;7.552;2023-04-20T04:00:11;12.65;;;7.45;;
68940;SDS011;55982;51.476;7.552;2023-04-20T04:02:37;17.42;;;8.10;;
68940;SDS011;55982;51.476;7.552;2023-04-20T04:05:02;10.55;;;7.70;;
68940;SDS011;55982;51.476;7.552;2023-04-20T04:07:28;12.52;;;7.55;;
68940;SDS011;55982;51.476;7.552;2023-04-20T04:09:53;16.83;;;8.27;;
68940;SDS011;55982;51.476;7.552;2023-04-20T04:12:18;15.48;;;8.48;;
68940;SDS011;55982;51.476;7.552;2023-04-20T04:14:44;16.15;;;8.57;;
68940;SDS011;55982;51.476;7.552;2023-04-20T04:17:09;18.67;;;9.88;;
68940;SDS011;55982;51.476;7.552;2023-04-20T04:19:34;18.95;;;9.20;;
68940;SDS011;55982;51.476;7.552;2023-04-20T04:22:00;16.65;;;9.93;;
68940;SDS011;55982;51.476;7.552;2023-04-20T04:24:25;16.95;;;9.88;;
68940;SDS011;55982;51.476;7.552;2023-04-20T04:26:51;20.92;;;10.13;;
68940;SDS011;55982;51.476;7.552;2023-04-20T04:29:20;19.65;;;9.55;;
68940;SDS011;55982;51.476;7.552;2023-04-20T04:31:46;19.95;;;9.88;;
68940;SDS011;55982;51.476;7.552;2023-04-20T04:34:11;18.85;;;9.77;;
68940;SDS011;55982;51.476;7.552;2023-04-20T04:36:37;20.83;;;10.85;;
68940;SDS011;55982;51.476;7.552;2023-04-20T04:39:02;17.42;;;9.77;;
68940;SDS011;55982;51.476;7.552;2023-04-20T04:41:28;20.25;;;10.50;;
68940;SDS011;55982;51.476;7.552;2023-04-20T04:43:53;17.83;;;10.27;;
68940;SDS011;55982;51.476;7.552;2023-04-20T04:46:19;18.23;;;10.63;;
68940;SDS011;55982;51.476;7.552;2023-04-20T04:48:45;20.08;;;10.27;;
68940;SDS011;55982;51.476;7.552;2023-04-20T04:51:10;17.83;;;10.27;;
68940;SDS011;55982;51.476;7.552;2023-04-20T04:53:36;17.73;;;9.35;;
68940;SDS011;55982;51.476;7.552;2023-04-20T04:56:02;17.75;;;10.18;;
68940;SDS011;55982;51.476;7.552;2023-04-20T04:58:28;17.95;;;9.45;;
68940;SDS011;55982;51.476;7.552;2023-04-20T05:00:53;19.55;;;9.98;;
68940;SDS011;55982;51.476;7.552;2023-04-20T05:03:18;17.70;;;9.88;;
68940;SDS011;55982;51.476;7.552;2023-04-20T05:05:44;18.98;;;9.75;;
68940;SDS011;55982;51.476;7.552;2023-04-20T05:08:10;18.10;;;10.10;;
68940;SDS011;55982;51.476;7.552;2023-04-20T05:10:36;19.63;;;9.60;;
68940;SDS011;55982;51.476;7.552;2023-04-20T05:13:01;17.70;;;9.05;;
68940;SDS011;55982;51.476;7.552;2023-04-20T05:15:27;17.65;;;9.80;;
68940;SDS011;55982;51.476;7.552;2023-04-20T05:17:52;16.27;;;9.65;;
68940;SDS011;55982;51.476;7.552;2023-04-20T05:20:17;15.40;;;10.00;;
68940;SDS011;55982;51.476;7.552;2023-04-20T05:22:43;15.95;;;10.07;;
68940;SDS011;55982;51.476;7.552;2023-04-20T05:25:09;19.23;;;11.07;;
68940;SDS011;55982;51.476;7.552;2023-04-20T05:27:34;18.02;;;10.68;;
68940;SDS011;55982;51.476;7.552;2023-04-20T05:30:00;21.15;;;12.23;;
68940;SDS011;55982;51.476;7.552;2023-04-20T05:32:25;18.92;;;11.23;;
68940;SDS011;55982;51.476;7.552;2023-04-20T05:34:51;25.17;;;11.98;;
68940;SDS011;55982;51.476;7.552;2023-04-20T05:37:16;22.52;;;12.75;;
68940;SDS011;55982;51.476;7.552;2023-04-20T05:39:41;17.90;;;10.82;;
68940;SDS011;55982;51.476;7.552;2023-04-20T05:42:07;21.77;;;12.65;;
68940;SDS011;55982;51.476;7.552;2023-04-20T05:44:32;22.05;;;12.38;;
68940;SDS011;55982;51.476;7.552;2023-04-20T05:47:00;15.60;;;10.90;;
68940;SDS011;55982;51.476;7.552;2023-04-20T05:49:26;19.85;;;11.02;;
68940;SDS011;55982;51.476;7.552;2023-04-20T05:51:51;23.95;;;11.85;;
68940;SDS011;55982;51.476;7.552;2023-04-20T05:54:16;17.17;;;11.15;;
68940;SDS011;55982;51.476;7.552;2023-04-20T05:56:42;21.65;;;11.52;;
68940;SDS011;55982;51.476;7.552;2023-04-20T05:59:07;20.00;;;11.48;;
68940;SDS011;55982;51.476;7.552;2023-04-20T06:01:33;18.35;;;10.98;;
68940;SDS011;55982;51.476;7.552;2023-04-20T06:03:58;19.95;;;11.43;;
68940;SDS011;55982;51.476;7.552;2023-04-20T06:06:24;22.20;;;11.95;;
68940;SDS011;55982;51.476;7.552;2023-04-20T06:08:50;20.92;;;11.15;;
68940;SDS011;55982;51.476;7.552;2023-04-20T06:11:16;20.42;;;11.10;;
68940;SDS011;55982;51.476;7.552;2023-04-20T06:13:41;18.20;;;10.60;;
68940;SDS011;55982;51.476;7.552;2023-04-20T06:16:07;18.65;;;10.82;;
68940;SDS011;55982;51.476;7.552;2023-04-20T06:18:34;16.63;;;10.60;;
68940;SDS011;55982;51.476;7.552;2023-04-20T06:21:01;20.02;;;11.23;;
68940;SDS011;55982;51.476;7.552;2023-04-20T06:23:26;18.60;;;10.55;;
68940;SDS011;55982;51.476;7.552;2023-04-20T06:25:52;18.63;;;9.93;;
68940;SDS011;55982;51.476;7.552;2023-04-20T06:28:17;18.23;;;10.00;;
68940;SDS011;55982;51.476;7.552;2023-04-20T06:30:42;16.38;;;9.60;;
68940;SDS011;55982;51.476;7.552;2023-04-20T06:33:08;18.10;;;9.40;;
68940;SDS011;55982;51.476;7.552;2023-04-20T06:35:33;18.33;;;8.98;;
68940;SDS011;55982;51.476;7.552;2023-04-20T06:37:58;19.30;;;9.60;;
68940;SDS011;55982;51.476;7.552;2023-04-20T06:40:26;13.70;;;8.68;;
68940;SDS011;55982;51.476;7.552;2023-04-20T06:42:53;14.57;;;9.63;;
68940;SDS011;55982;51.476;7.552;2023-04-20T06:45:18;15.57;;;9.15;;
68940;SDS011;55982;51.476;7.552;2023-04-20T06:47:43;15.65;;;9.35;;
68940;SDS011;55982;51.476;7.552;2023-04-20T06:50:09;13.38;;;9.27;;
68940;SDS011;55982;51.476;7.552;2023-04-20T06:52:38;12.77;;;8.77;;
68940;SDS011;55982;51.476;7.552;2023-04-20T06:55:05;19.42;;;9.13;;
68940;SDS011;55982;51.476;7.552;2023-04-20T06:57:30;16.65;;;9.27;;
68940;SDS011;55982;51.476;7.552;2023-04-20T06:59:55;12.68;;;8.32;;
68940;SDS011;55982;51.476;7.552;2023-04-20T07:02:22;13.93;;;8.85;;
68940;SDS011;55982;51.476;7.552;2023-04-20T07:04:48;14.57;;;8.98;;
68940;SDS011;55982;51.476;7.552;2023-04-20T07:07:13;16.25;;;9.07;;
68940;SDS011;55982;51.476;7.552;2023-04-20T07:09:39;16.77;;;8.60;;
68940;SDS011;55982;51.476;7.552;2023-04-20T07:12:04;15.63;;;8.88;;
68940;SDS011;55982;51.476;7.552;2023-04-20T07:14:29;18.00;;;9.85;;
68940;SDS011;55982;51.476;7.552;2023-04-20T07:16:55;18.00;;;9.52;;
68940;SDS011;55982;51.476;7.552;2023-04-20T07:19:20;15.48;;;9.25;;
68940;SDS011;55982;51.476;7.552;2023-04-20T07:21:46;16.38;;;8.75;;
68940;SDS011;55982;51.476;7.552;2023-04-20T07:24:11;13.70;;;8.70;;
68940;SDS011;55982;51.476;7.552;2023-04-20T07:26:36;15.80;;;9.30;;
68940;SDS011;55982;51.476;7.552;2023-04-20T07:29:02;15.95;;;9.32;;
68940;SDS011;55982;51.476;7.552;2023-04-20T07:31:28;14.30;;;9.30;;
68940;SDS011;55982;51.476;7.552;2023-04-20T07:33:53;17.92;;;9.85;;
68940;SDS011;55982;51.476;7.552;2023-04-20T07:36:18;15.45;;;9.30;;
68940;SDS011;55982;51.476;7.552;2023-04-20T07:38:45;19.33;;;9.57;;
68940;SDS011;55982;51.476;7.552;2023-04-20T07:41:10;15.45;;;9.02;;
68940;SDS011;55982;51.476;7.552;2023-04-20T07:43:36;18.30;;;9.18;;
68940;SDS011;55982;51.476;7.552;2023-04-20T07:46:02;12.23;;;9.07;;
68940;SDS011;55982;51.476;7.552;2023-04-20T07:48:28;16.50;;;9.65;;
68940;SDS011;55982;51.476;7.552;2023-04-20T07:50:53;14.27;;;8.95;;
68940;SDS011;55982;51.476;7.552;2023-04-20T07:53:19;19.70;;;10.57;;
68940;SDS011;55982;51.476;7.552;2023-04-20T07:55:44;16.38;;;11.15;;
68940;SDS011;55982;51.476;7.552;2023-04-20T07:58:10;19.98;;;10.52;;
68940;SDS011;55982;51.476;7.552;2023-04-20T08:00:36;21.40;;;11.25;;
68940;SDS011;55982;51.476;7.552;2023-04-20T08:03:01;21.10;;;11.00;;
68940;SDS011;55982;51.476;7.552;2023-04-20T08:05:26;18.98;;;11.07;;
68940;SDS011;55982;51.476;7.552;2023-04-20T08:07:52;23.02;;;11.85;;
68940;SDS011;55982;51.476;7.552;2023-04-20T08:10:17;21.38;;;11.90;;
68940;SDS011;55982;51.476;7.552;2023-04-20T08:12:43;24.48;;;13.18;;
68940;SDS011;55982;51.476;7.552;2023-04-20T08:15:08;23.27;;;12.65;;
68940;SDS011;55982;51.476;7.552;2023-04-20T08:17:34;23.30;;;12.38;;
68940;SDS011;55982;51.476;7.552;2023-04-20T08:19:59;20.60;;;11.65;;
68940;SDS011;55982;51.476;7.552;2023-04-20T08:22:25;21.52;;;11.15;;
68940;SDS011;55982;51.476;7.552;2023-04-20T08:24:54;19.00;;;9.57;;
68940;SDS011;55982;51.476;7.552;2023-04-20T08:27:22;19.45;;;10.73;;
68940;SDS011;55982;51.476;7.552;2023-04-20T08:29:47;16.92;;;10.07;;
68940;SDS011;55982;51.476;7.552;2023-04-20T08:32:12;15.68;;;9.60;;
68940;SDS011;55982;51.476;7.552;2023-04-20T08:34:39;13.85;;;8.63;;
68940;SDS011;55982;51.476;7.552;2023-04-20T08:37:05;13.38;;;7.82;;
68940;SDS011;55982;51.476;7.552;2023-04-20T08:39:30;12.27;;;7.22;;
68940;SDS011;55982;51.476;7.552;2023-04-20T08:41:56;11.23;;;6.93;;
68940;SDS011;55982;51.476;7.552;2023-04-20T08:44:22;12.73;;;7.45;;
68940;SDS011;55982;51.476;7.552;2023-04-20T08:46:48;11.85;;;7.32;;
68940;SDS011;55982;51.476;7.552;2023-04-20T08:49:15;8.90;;;6.65;;
68940;SDS011;55982;51.476;7.552;2023-04-20T08:51:42;12.52;;;6.72;;
68940;SDS011;55982;51.476;7.552;2023-04-20T08:54:08;11.43;;;7.22;;
68940;SDS011;55982;51.476;7.552;2023-04-20T08:56:39;9.95;;;7.00;;
68940;SDS011;55982;51.476;7.552;2023-04-20T08:59:06;15.57;;;8.55;;
68940;SDS011;55982;51.476;7.552;2023-04-20T09:01:34;11.68;;;7.93;;
68940;SDS011;55982;51.476;7.552;2023-04-20T09:04:00;13.90;;;7.85;;
68940;SDS011;55982;51.476;7.552;2023-04-20T09:06:26;11.68;;;7.63;;
68940;SDS011;55982;51.476;7.552;2023-04-20T09:08:52;16.63;;;8.63;;
68940;SDS011;55982;51.476;7.552;2023-04-20T09:11:22;12.73;;;8.40;;
68940;SDS011;55982;51.476;7.552;2023-04-20T09:14:01;13.52;;;8.23;;
68940;SDS011;55982;51.476;7.552;2023-04-20T09:16:31;16.52;;;9.50;;
68940;SDS011;55982;51.476;7.552;2023-04-20T09:18:58;11.95;;;8.05;;
68940;SDS011;55982;51.476;7.552;2023-04-20T09:21:24;16.13;;;8.18;;
68940;SDS011;55982;51.476;7.552;2023-04-20T09:23:55;11.07;;;7.35;;
68940;SDS011;55982;51.476;7.552;2023-04-20T09:26:20;13.18;;;8.65;;
68940;SDS011;55982;51.476;7.552;2023-04-20T09:28:46;13.73;;;8.95;;
68940;SDS011;55982;51.476;7.552;2023-04-20T09:31:19;14.90;;;10.07;;
68940;SDS011;55982;51.476;7.552;2023-04-20T09:33:56;15.65;;;9.65;;
68940;SDS011;55982;51.476;7.552;2023-04-20T09:36:22;15.57;;;10.10;;
68940;SDS011;55982;51.476;7.552;2023-04-20T09:38:59;16.98;;;9.80;;
68940;SDS011;55982;51.476;7.552;2023-04-20T09:41:27;16.13;;;9.35;;
68940;SDS011;55982;51.476;7.552;2023-04-20T09:43:53;14.43;;;10.25;;
68940;SDS011;55982;51.476;7.552;2023-04-20T09:46:20;14.50;;;8.65;;
68940;SDS011;55982;51.476;7.552;2023-04-20T09:48:45;13.20;;;8.90;;
68940;SDS011;55982;51.476;7.552;2023-04-20T09:51:11;10.43;;;6.50;;
68940;SDS011;55982;51.476;7.552;2023-04-20T09:53:36;11.27;;;7.18;;
68940;SDS011;55982;51.476;7.552;2023-04-20T09:56:03;8.18;;;6.43;;
68940;SDS011;55982;51.476;7.552;2023-04-20T09:58:30;8.48;;;6.40;;
68940;SDS011;55982;51.476;7.552;2023-04-20T10:00:56;7.85;;;6.18;;
68940;SDS011;55982;51.476;7.552;2023-04-20T10:03:21;10.18;;;7.18;;
68940;SDS011;55982;51.476;7.552;2023-04-20T10:05:47;12.57;;;7.75;;
68940;SDS011;55982;51.476;7.552;2023-04-20T10:08:12;11.52;;;7.90;;
68940;SDS011;55982;51.476;7.552;2023-04-20T10:10:42;13.80;;;8.65;;
68940;SDS011;55982;51.476;7.552;2023-04-20T10:13:10;14.40;;;9.18;;
68940;SDS011;55982;51.476;7.552;2023-04-20T10:15:39;13.48;;;8.23;;
68940;SDS011;55982;51.476;7.552;2023-04-20T10:18:18;15.15;;;8.48;;
68940;SDS011;55982;51.476;7.552;2023-04-20T10:20:43;11.45;;;8.15;;
68940;SDS011;55982;51.476;7.552;2023-04-20T10:23:10;10.90;;;7.78;;
68940;SDS011;55982;51.476;7.552;2023-04-20T10:25:35;12.45;;;7.65;;
68940;SDS011;55982;51.476;7.552;2023-04-20T10:28:02;17.98;;;8.15;;
68940;SDS011;55982;51.476;7.552;2023-04-20T10:30:30;11.45;;;7.97;;
68940;SDS011;55982;51.476;7.552;2023-04-20T10:33:07;10.50;;;6.53;;
68940;SDS011;55982;51.476;7.552;2023-04-20T10:35:45;9.98;;;6.00;;
68940;SDS011;55982;51.476;7.552;2023-04-20T10:38:31;9.55;;;6.63;;
68940;SDS011;55982;51.476;7.552;2023-04-20T10:41:04;8.88;;;5.60;;
68940;SDS011;55982;51.476;7.552;2023-04-20T10:43:37;6.75;;;4.65;;
68940;SDS011;55982;51.476;7.552;2023-04-20T10:46:21;5.20;;;4.20;;
68940;SDS011;55982;51.476;7.552;2023-04-20T10:48:52;4.15;;;3.55;;
68940;SDS011;55982;51.476;7.552;2023-04-20T10:51:22;5.40;;;4.50;;
68940;SDS011;55982;51.476;7.552;2023-04-20T10:53:58;5.95;;;4.35;;
68940;SDS011;55982;51.476;7.552;2023-04-20T10:56:25;17.60;;;6.53;;
68940;SDS011;55982;51.476;7.552;2023-04-20T10:58:51;6.53;;;4.72;;
68940;SDS011;55982;51.476;7.552;2023-04-20T11:01:17;4.70;;;3.90;;
68940;SDS011;55982;51.476;7.552;2023-04-20T11:03:47;6.45;;;4.50;;
68940;SDS011;55982;51.476;7.552;2023-04-20T11:06:14;5.80;;;4.60;;
68940;SDS011;55982;51.476;7.552;2023-04-20T11:08:40;6.07;;;4.70;;
68940;SDS011;55982;51.476;7.552;2023-04-20T11:11:16;5.82;;;4.65;;
68940;SDS011;55982;51.476;7.552;2023-04-20T11:13:43;5.43;;;4.35;;
68940;SDS011;55982;51.476;7.552;2023-04-20T11:16:10;6.43;;;4.78;;
68940;SDS011;55982;51.476;7.552;2023-04-20T11:18:45;5.28;;;4.25;;
68940;SDS011;55982;51.476;7.552;2023-04-20T11:21:18;5.85;;;4.55;;
68940;SDS011;55982;51.476;7.552;2023-04-20T11:23:44;6.15;;;4.78;;
68940;SDS011;55982;51.476;7.552;2023-04-20T11:26:09;7.38;;;5.63;;
68940;SDS011;55982;51.476;7.552;2023-04-20T11:28:35;7.35;;;5.00;;
68940;SDS011;55982;51.476;7.552;2023-04-20T11:31:01;8.05;;;5.50;;
68940;SDS011;55982;51.476;7.552;2023-04-20T11:33:27;8.27;;;6.10;;
68940;SDS011;55982;51.476;7.552;2023-04-20T11:35:53;9.25;;;6.57;;
68940;SDS011;55982;51.476;7.552;2023-04-20T11:38:32;8.10;;;6.22;;
68940;SDS011;55982;51.476;7.552;2023-04-20T11:40:59;10.70;;;7.22;;
68940;SDS011;55982;51.476;7.552;2023-04-20T11:43:29;9.68;;;6.70;;
68940;SDS011;55982;51.476;7.552;2023-04-20T11:45:56;8.00;;;5.80;;
68940;SDS011;55982;51.476;7.552;2023-04-20T11:48:22;7.60;;;5.93;;
68940;SDS011;55982;51.476;7.552;2023-04-20T11:50:47;8.52;;;5.90;;
68940;SDS011;55982;51.476;7.552;2023-04-20T11:53:13;8.10;;;6.18;;
68940;SDS011;55982;51.476;7.552;2023-04-20T11:55:39;9.82;;;6.47;;
68940;SDS011;55982;51.476;7.552;2023-04-20T11:58:05;9.02;;;6.40;;
68940;SDS011;55982;51.476;7.552;2023-04-20T12:00:32;9.25;;;5.93;;
68940;SDS011;55982;51.476;7.552;2023-04-20T12:02:57;10.82;;;7.00;;
68940;SDS011;55982;51.476;7.552;2023-04-20T12:05:23;9.02;;;5.95;;
68940;SDS011;55982;51.476;7.552;2023-04-20T12:07:49;8.27;;;6.60;;
68940;SDS011;55982;51.476;7.552;2023-04-20T12:10:14;10.32;;;6.10;;
68940;SDS011;55982;51.476;7.552;2023-04-20T12:12:40;8.05;;;5.53;;
68940;SDS011;55982;51.476;7.552;2023-04-20T12:15:06;10.30;;;6.65;;
68940;SDS011;55982;51.476;7.552;2023-04-20T12:17:32;9.65;;;6.38;;
68940;SDS011;55982;51.476;7.552;2023-04-20T12:19:57;9.38;;;6.13;;
68940;SDS011;55982;51.476;7.552;2023-04-20T12:22:23;8.77;;;6.75;;
68940;SDS011;55982;51.476;7.552;2023-04-20T12:24:48;11.57;;;8.20;;
68940;SDS011;55982;51.476;7.552;2023-04-20T12:27:13;9.10;;;7.20;;
68940;SDS011;55982;51.476;7.552;2023-04-20T12:29:39;9.48;;;7.57;;
68940;SDS011;55982;51.476;7.552;2023-04-20T12:32:04;10.40;;;7.82;;
68940;SDS011;55982;51.476;7.552;2023-04-20T12:34:30;12.52;;;8.25;;
68940;SDS011;55982;51.476;7.552;2023-04-20T12:36:55;11.88;;;8.15;;
68940;SDS011;55982;51.476;7.552;2023-04-20T12:39:20;10.88;;;8.10;;
68940;SDS011;55982;51.476;7.552;2023-04-20T12:41:46;11.55;;;8.25;;
68940;SDS011;55982;51.476;7.552;2023-04-20T12:44:11;12.88;;;8.68;;
68940;SDS011;55982;51.476;7.552;2023-04-20T12:46:37;10.90;;;8.07;;
68940;SDS011;55982;51.476;7.552;2023-04-20T12:49:02;14.65;;;8.75;;
68940;SDS011;55982;51.476;7.552;2023-04-20T12:51:28;11.25;;;8.52;;
68940;SDS011;55982;51.476;7.552;2023-04-20T12:53:53;14.82;;;9.02;;
68940;SDS011;55982;51.476;7.552;2023-04-20T12:56:19;15.82;;;9.68;;
68940;SDS011;55982;51.476;7.552;2023-04-20T12:58:44;12.57;;;8.82;;
68940;SDS011;55982;51.476;7.552;2023-04-20T13:01:10;14.07;;;9.65;;
68940;SDS011;55982;51.476;7.552;2023-04-20T13:03:35;13.88;;;8.60;;
68940;SDS011;55982;51.476;7.552;2023-04-20T13:06:00;13.93;;;8.70;;
68940;SDS011;55982;51.476;7.552;2023-04-20T13:08:26;14.95;;;9.65;;
68940;SDS011;55982;51.476;7.552;2023-04-20T13:10:51;16.60;;;9.00;;
68940;SDS011;55982;51.476;7.552;2023-04-20T13:13:16;14.50;;;9.63;;
68940;SDS011;55982;51.476;7.552;2023-04-20T13:15:42;14.43;;;9.73;;
68940;SDS011;55982;51.476;7.552;2023-04-20T13:18:07;15.45;;;8.80;;
68940;SDS011;55982;51.476;7.552;2023-04-20T13:20:33;11.52;;;8.38;;
68940;SDS011;55982;51.476;7.552;2023-04-20T13:22:59;14.40;;;8.77;;
68940;SDS011;55982;51.476;7.552;2023-04-20T13:25:25;13.13;;;8.68;;
68940;SDS011;55982;51.476;7.552;2023-04-20T13:27:52;11.32;;;7.63;;
68940;SDS011;55982;51.476;7.552;2023-04-20T13:30:18;12.38;;;7.90;;
68940;SDS011;55982;51.476;7.552;2023-04-20T13:32:44;12.65;;;8.02;;
68940;SDS011;55982;51.476;7.552;2023-04-20T13:35:09;11.10;;;7.57;;
68940;SDS011;55982;51.476;7.552;2023-04-20T13:37:37;15.65;;;8.30;;
68940;SDS011;55982;51.476;7.552;2023-04-20T13:40:03;13.00;;;8.90;;
68940;SDS011;55982;51.476;7.552;2023-04-20T13:42:29;13.25;;;8.98;;
68940;SDS011;55982;51.476;7.552;2023-04-20T13:44:55;13.60;;;9.25;;
68940;SDS011;55982;51.476;7.552;2023-04-20T13:47:20;16.42;;;10.82;;
68940;SDS011;55982;51.476;7.552;2023-04-20T13:49:45;18.35;;;10.30;;
68940;SDS011;55982;51.476;7.552;2023-04-20T13:52:11;17.48;;;11.38;;
68940;SDS011;55982;51.476;7.552;2023-04-20T13:54:36;17.98;;;11.20;;
68940;SDS011;55982;51.476;7.552;2023-04-20T13:57:01;18.30;;;10.38;;
68940;SDS011;55982;51.476;7.552;2023-04-20T13:59:27;17.00;;;11.15;;
68940;SDS011;55982;51.476;7.552;2023-04-20T14:01:53;17.60;;;10.73;;
68940;SDS011;55982;51.476;7.552;2023-04-20T14:04:18;18.02;;;10.38;;
68940;SDS011;55982;51.476;7.552;2023-04-20T14:06:44;16.50;;;10.50;;
68940;SDS011;55982;51.476;7.552;2023-04-20T14:09:09;17.13;;;11.38;;
68940;SDS011;55982;51.476;7.552;2023-04-20T14:11:34;17.08;;;10.35;;
68940;SDS011;55982;51.476;7.552;2023-04-20T14:13:59;18.17;;;11.02;;
68940;SDS011;55982;51.476;7.552;2023-04-20T14:16:25;17.17;;;11.30;;
68940;SDS011;55982;51.476;7.552;2023-04-20T14:18:51;16.75;;;11.43;;
68940;SDS011;55982;51.476;7.552;2023-04-20T14:21:16;18.17;;;10.95;;
68940;SDS011;55982;51.476;7.552;2023-04-20T14:23:41;19.52;;;11.73;;
68940;SDS011;55982;51.476;7.552;2023-04-20T14:26:07;18.08;;;12.00;;
68940;SDS011;55982;51.476;7.552;2023-04-20T14:28:35;17.65;;;11.57;;
68940;SDS011;55982;51.476;7.552;2023-04-20T14:31:00;16.00;;;11.00;;